createdAt,value
2018-01-28T00:01:49.686Z,101642.42
2018-01-28T00:04:17.088Z,101641.90
2018-01-28T00:06:44.504Z,101637.64
2018-01-28T00:09:11.924Z,101643.11
2018-01-28T00:11:39.336Z,101650.20
2018-01-28T00:14:06.740Z,101649.48
2018-01-28T00:16:34.160Z,101646.94
2018-01-28T00:19:01.577Z,101641.00
2018-01-28T00:21:28.989Z,101640.13
2018-01-28T00:23:56.414Z,101635.91
2018-01-28T00:26:23.829Z,101631.30
2018-01-28T00:28:51.244Z,101628.78
2018-01-28T00:31:18.673Z,101634.00
2018-01-28T00:33:46.097Z,101637.42
2018-01-28T00:36:13.523Z,101638.86
2018-01-28T00:38:40.945Z,101629.48
2018-01-28T00:41:08.354Z,101631.32
2018-01-28T00:43:35.761Z,101634.14
2018-01-28T00:46:03.182Z,101629.06
2018-01-28T00:48:30.589Z,101630.27
2018-01-28T00:50:58.002Z,101630.13
2018-01-28T00:53:25.424Z,101626.25
2018-01-28T00:55:52.830Z,101624.67
2018-01-28T00:58:20.236Z,101629.96
2018-01-28T01:00:47.656Z,101631.67
2018-01-28T01:03:15.064Z,101627.91
2018-01-28T01:05:42.473Z,101631.55
2018-01-28T01:08:09.892Z,101630.91
2018-01-28T01:10:37.301Z,101618.56
2018-01-28T01:13:04.783Z,101620.28
2018-01-28T01:15:32.192Z,101623.22
2018-01-28T01:17:59.605Z,101623.98
2018-01-28T01:20:27.025Z,101626.97
2018-01-28T01:22:54.451Z,101620.92
2018-01-28T01:25:21.864Z,101613.75
2018-01-28T01:27:49.269Z,101618.31
2018-01-28T01:30:16.689Z,101608.84
2018-01-28T01:32:44.140Z,101611.10
2018-01-28T01:35:11.556Z,101620.53
2018-01-28T01:37:38.997Z,101615.07
2018-01-28T01:40:06.400Z,101618.61
2018-01-28T01:42:33.822Z,101610.34
2018-01-28T01:45:01.244Z,101608.55
2018-01-28T01:47:28.653Z,101604.91
2018-01-28T01:49:56.061Z,101616.52
2018-01-28T01:52:23.486Z,101620.48
2018-01-28T01:54:50.892Z,101609.25
2018-01-28T01:57:18.301Z,101620.83
2018-01-28T01:59:45.733Z,101624.14
2018-01-28T02:02:13.147Z,101623.80
2018-01-28T02:04:40.586Z,101628.32
2018-01-28T02:07:08.009Z,101625.20
2018-01-28T02:09:35.416Z,101626.77
2018-01-28T02:12:02.820Z,101633.99
2018-01-28T02:14:30.241Z,101633.42
2018-01-28T02:16:57.645Z,101631.94
2018-01-28T02:19:25.073Z,101634.63
2018-01-28T02:21:52.501Z,101629.34
2018-01-28T02:24:19.920Z,101622.25
2018-01-28T02:26:47.329Z,101622.08
2018-01-28T02:29:14.757Z,101620.32
2018-01-28T02:31:42.177Z,101621.09
2018-01-28T02:34:09.610Z,101620.94
2018-01-28T02:36:37.029Z,101620.48
2018-01-28T02:39:04.441Z,101613.30
2018-01-28T02:41:32.052Z,101615.47
2018-01-28T02:43:59.485Z,101610.09
2018-01-28T02:46:26.890Z,101609.19
2018-01-28T02:48:54.313Z,101607.31
2018-01-28T02:51:21.736Z,101602.33
2018-01-28T02:53:49.150Z,101607.71
2018-01-28T02:56:16.557Z,101612.96
2018-01-28T02:58:43.997Z,101618.72
2018-01-28T03:01:11.404Z,101611.09
2018-01-28T03:03:38.813Z,101604.90
2018-01-28T03:06:06.245Z,101605.52
2018-01-28T03:08:33.652Z,101605.30
2018-01-28T03:11:01.061Z,101605.39
2018-01-28T03:13:28.501Z,101611.68
2018-01-28T03:15:55.918Z,101607.48
2018-01-28T03:18:23.329Z,101616.45
2018-01-28T03:20:50.752Z,101628.45
2018-01-28T03:23:18.173Z,101622.27
2018-01-28T03:25:45.579Z,101611.27
2018-01-28T03:28:13.017Z,101616.81
2018-01-28T03:30:40.422Z,101615.66
2018-01-28T03:33:07.830Z,101617.49
2018-01-28T03:35:35.252Z,101621.41
2018-01-28T03:38:02.668Z,101626.31
2018-01-28T03:40:30.085Z,101625.83
2018-01-28T03:42:57.518Z,101631.20
2018-01-28T03:45:24.917Z,101627.58
2018-01-28T03:47:52.365Z,101624.12
2018-01-28T03:50:19.792Z,101625.25
2018-01-28T03:52:47.200Z,101639.14
2018-01-28T03:55:14.609Z,101646.95
2018-01-28T03:57:42.028Z,101648.05
2018-01-28T04:00:09.453Z,101641.54
2018-01-28T04:02:36.856Z,101640.55
2018-01-28T04:05:04.283Z,101635.38
2018-01-28T04:07:31.689Z,101637.78
2018-01-28T04:09:59.098Z,101631.61
2018-01-28T04:12:26.517Z,101623.44
2018-01-28T04:14:53.925Z,101619.78
2018-01-28T04:17:21.333Z,101620.88
2018-01-28T04:19:48.759Z,101623.56
2018-01-28T04:22:16.180Z,101610.36
2018-01-28T04:24:43.588Z,101611.75
2018-01-28T04:27:11.028Z,101623.76
2018-01-28T04:29:38.448Z,101632.05
2018-01-28T04:32:05.861Z,101633.06
2018-01-28T04:34:33.292Z,101625.36
2018-01-28T04:37:00.699Z,101624.66
2018-01-28T04:39:28.124Z,101631.20
2018-01-28T04:41:55.545Z,101624.03
2018-01-28T04:44:22.953Z,101633.87
2018-01-28T04:46:50.381Z,101633.67
2018-01-28T04:49:17.800Z,101640.25
2018-01-28T04:51:45.268Z,101643.72
2018-01-28T04:54:12.701Z,101644.50
2018-01-28T04:56:40.112Z,101644.67
2018-01-28T04:59:07.530Z,101645.37
2018-01-28T05:01:34.965Z,101648.92
2018-01-28T05:04:02.382Z,101646.89
2018-01-28T05:06:29.788Z,101649.03
2018-01-28T05:08:57.197Z,101639.97
2018-01-28T05:11:24.639Z,101629.55
2018-01-28T05:13:52.045Z,101636.95
2018-01-28T05:16:19.457Z,101638.34
2018-01-28T05:18:46.905Z,101636.23
2018-01-28T05:21:14.316Z,101637.45
2018-01-28T05:23:41.721Z,101639.83
2018-01-28T05:26:09.145Z,101652.75
2018-01-28T05:28:36.556Z,101659.94
2018-01-28T05:31:03.965Z,101665.22
2018-01-28T05:33:31.389Z,101658.83
2018-01-28T05:35:58.800Z,101657.00
2018-01-28T05:38:26.213Z,101662.26
2018-01-28T05:40:53.653Z,101665.89
2018-01-28T05:43:21.064Z,101675.34
2018-01-28T05:45:48.511Z,101684.67
2018-01-28T05:48:15.996Z,101688.51
2018-01-28T05:50:43.401Z,101685.27
2018-01-28T05:53:10.808Z,101683.65
2018-01-28T05:55:38.233Z,101683.25
2018-01-28T05:58:05.644Z,101692.90
2018-01-28T06:00:33.066Z,101693.86
2018-01-28T06:03:00.508Z,101686.50
2018-01-28T06:05:27.918Z,101684.48
2018-01-28T06:07:55.316Z,101677.54
2018-01-28T06:10:22.757Z,101670.45
2018-01-28T06:12:50.184Z,101683.35
2018-01-28T06:15:17.609Z,101685.80
2018-01-28T06:17:45.041Z,101684.13
2018-01-28T06:20:12.448Z,101686.61
2018-01-28T06:22:39.864Z,101695.20
2018-01-28T06:25:07.293Z,101693.03
2018-01-28T06:27:34.701Z,101693.03
2018-01-28T06:30:03.144Z,101685.70
2018-01-28T06:32:30.556Z,101692.67
2018-01-28T06:34:57.973Z,101693.67
2018-01-28T06:37:25.381Z,101705.75
2018-01-28T06:39:52.801Z,101713.22
2018-01-28T06:42:20.237Z,101712.47
2018-01-28T06:44:47.644Z,101714.97
2018-01-28T06:47:15.077Z,101717.76
2018-01-28T06:49:42.509Z,101726.73
2018-01-28T06:52:09.925Z,101720.98
2018-01-28T06:54:37.340Z,101723.74
2018-01-28T06:57:04.769Z,101733.09
2018-01-28T06:59:32.176Z,101737.38
2018-01-28T07:01:59.596Z,101741.87
2018-01-28T07:04:27.006Z,101739.66
2018-01-28T07:06:56.429Z,101757.78
2018-01-28T07:09:23.854Z,101758.94
2018-01-28T07:11:51.269Z,101753.19
2018-01-28T07:14:18.681Z,101751.27
2018-01-28T07:16:46.143Z,101757.15
2018-01-28T07:19:13.543Z,101761.48
2018-01-28T07:21:40.962Z,101759.82
2018-01-28T07:24:08.396Z,101770.00
2018-01-28T07:26:35.809Z,101769.02
2018-01-28T07:29:03.265Z,101770.06
2018-01-28T07:31:30.718Z,101776.17
2018-01-28T07:33:58.128Z,101774.39
2018-01-28T07:36:25.548Z,101768.44
2018-01-28T07:38:52.956Z,101760.94
2018-01-28T07:41:20.374Z,101768.63
2018-01-28T07:43:47.788Z,101766.88
2018-01-28T07:46:15.217Z,101783.20
2018-01-28T07:48:42.634Z,101793.98
2018-01-28T07:51:10.052Z,101790.33
2018-01-28T07:53:37.489Z,101796.31
2018-01-28T07:56:04.917Z,101789.63
2018-01-28T07:58:32.331Z,101801.73
2018-01-28T08:01:00.669Z,101803.73
2018-01-28T08:03:29.184Z,101806.72
2018-01-28T08:05:56.606Z,101810.27
2018-01-28T08:08:24.076Z,101809.77
2018-01-28T08:10:51.469Z,101813.26
2018-01-28T08:13:24.404Z,101820.88
2018-01-28T08:15:51.822Z,101817.60
2018-01-28T08:18:19.267Z,101825.17
2018-01-28T08:20:46.711Z,101826.13
2018-01-28T08:23:14.191Z,101824.69
2018-01-28T08:25:41.593Z,101815.22
2018-01-28T08:28:13.960Z,101820.09
2018-01-28T08:30:41.399Z,101824.41
2018-01-28T08:33:08.814Z,101824.86
2018-01-28T08:35:36.248Z,101825.59
2018-01-28T08:38:03.681Z,101831.27
2018-01-28T08:40:31.102Z,101832.16
2018-01-28T08:42:58.570Z,101833.09
2018-01-28T08:45:26.017Z,101829.66
2018-01-28T08:47:53.429Z,101836.66
2018-01-28T08:50:20.850Z,101843.06
2018-01-28T08:52:48.312Z,101840.42
2018-01-28T08:55:15.731Z,101835.00
2018-01-28T08:57:43.141Z,101833.93
2018-01-28T09:00:10.557Z,101836.68
2018-01-28T09:02:38.028Z,101833.67
2018-01-28T09:05:05.457Z,101842.27
2018-01-28T09:07:32.884Z,101836.78
2018-01-28T09:10:00.398Z,101842.27
2018-01-28T09:12:27.821Z,101843.92
2018-01-28T09:14:55.232Z,101848.58
2018-01-28T09:17:22.656Z,101853.67
2018-01-28T09:19:50.077Z,101854.02
2018-01-28T09:22:18.443Z,101848.02
2018-01-28T09:24:45.927Z,101851.91
2018-01-28T09:27:13.353Z,101850.16
2018-01-28T09:29:40.797Z,101849.12
2018-01-28T09:32:10.120Z,101849.36
2018-01-28T09:34:37.592Z,101862.20
2018-01-28T09:37:05.020Z,101856.66
2018-01-28T09:39:32.431Z,101857.30
2018-01-28T09:41:59.848Z,101864.96
2018-01-28T09:44:27.260Z,101870.17
2018-01-28T09:46:54.694Z,101869.93
2018-01-28T09:49:22.138Z,101882.42
2018-01-28T09:51:49.682Z,101866.76
2018-01-28T09:54:17.486Z,101875.31
2018-01-28T09:56:44.882Z,101879.31
2018-01-28T09:59:12.284Z,101880.46
2018-01-28T10:01:39.709Z,101878.31
2018-01-28T10:04:07.116Z,101880.42
2018-01-28T10:06:37.928Z,101892.20
2018-01-28T10:09:06.111Z,101893.28
2018-01-28T10:11:33.872Z,101893.23
2018-01-28T10:14:01.304Z,101901.70
2018-01-28T10:16:28.749Z,101903.41
2018-01-28T10:18:56.152Z,101902.31
2018-01-28T10:21:23.599Z,101906.70
2018-01-28T10:23:51.108Z,101906.08
2018-01-28T10:26:19.432Z,101920.31
2018-01-28T10:28:46.860Z,101920.85
2018-01-28T10:31:14.349Z,101922.75
2018-01-28T10:33:42.128Z,101919.27
2018-01-28T10:36:10.110Z,101921.52
2018-01-28T10:38:38.802Z,101932.38
2018-01-28T10:41:06.577Z,101934.28
2018-01-28T10:43:33.977Z,101938.00
2018-01-28T10:46:01.536Z,101944.32
2018-01-28T10:48:29.020Z,101942.80
2018-01-28T10:50:56.465Z,101947.24
2018-01-28T10:53:23.901Z,101942.83
2018-01-28T10:55:51.332Z,101943.67
2018-01-28T10:58:18.781Z,101943.82
2018-01-28T11:00:46.222Z,101945.81
2018-01-28T11:03:14.670Z,101937.27
2018-01-28T11:05:42.140Z,101924.25
2018-01-28T11:08:09.572Z,101925.01
2018-01-28T11:10:36.985Z,101930.28
2018-01-28T11:13:04.432Z,101925.53
2018-01-28T11:15:32.489Z,101914.27
2018-01-28T11:17:59.909Z,101908.37
2018-01-28T11:20:27.348Z,101899.55
2018-01-28T11:22:55.473Z,101898.55
2018-01-28T11:25:22.884Z,101902.30
2018-01-28T11:27:50.312Z,101910.66
2018-01-28T11:30:17.724Z,101906.03
2018-01-28T11:32:45.149Z,101904.45
2018-01-28T11:35:12.637Z,101901.25
2018-01-28T11:37:40.040Z,101904.23
2018-01-28T11:40:07.465Z,101912.95
2018-01-28T11:42:34.940Z,101906.20
2018-01-28T11:45:02.353Z,101911.47
2018-01-28T11:47:29.786Z,101922.61
2018-01-28T11:49:57.217Z,101915.28
2018-01-28T11:52:24.653Z,101924.30
2018-01-28T11:54:52.077Z,101924.45
2018-01-28T11:57:19.521Z,101919.73
2018-01-28T11:59:46.957Z,101910.98
2018-01-28T12:02:20.189Z,101918.46
2018-01-28T12:04:47.597Z,101916.31
2018-01-28T12:07:17.961Z,101922.16
2018-01-28T12:09:45.402Z,101921.39
2018-01-28T12:12:12.827Z,101913.64
2018-01-28T12:14:40.285Z,101926.98
2018-01-28T12:17:07.731Z,101922.56
2018-01-28T12:19:35.154Z,101925.58
2018-01-28T12:22:02.596Z,101929.91
2018-01-28T12:24:30.058Z,101938.91
2018-01-28T12:26:57.528Z,101922.83
2018-01-28T12:29:25.545Z,101929.34
2018-01-28T12:32:03.201Z,101924.09
2018-01-28T12:34:30.610Z,101921.23
2018-01-28T12:36:58.525Z,101916.91
2018-01-28T12:39:25.956Z,101929.91
2018-01-28T12:41:53.380Z,101917.73
2018-01-28T12:44:20.788Z,101912.50
2018-01-28T12:46:48.345Z,101905.50
2018-01-28T12:49:15.763Z,101911.50
2018-01-28T12:51:43.174Z,101915.43
2018-01-28T12:54:11.433Z,101912.10
2018-01-28T12:56:38.872Z,101906.16
2018-01-28T12:59:06.936Z,101909.25
2018-01-28T13:01:34.383Z,101914.44
2018-01-28T13:04:01.789Z,101904.17
2018-01-28T13:06:29.289Z,101897.50
2018-01-28T13:08:56.725Z,101899.41
2018-01-28T13:11:24.137Z,101907.83
2018-01-28T13:13:51.549Z,101899.91
2018-01-28T13:16:18.977Z,101909.09
2018-01-28T13:18:46.388Z,101901.83
2018-01-28T13:21:13.809Z,101895.98
2018-01-28T13:23:41.233Z,101890.75
2018-01-28T13:26:08.663Z,101895.09
2018-01-28T13:28:36.108Z,101894.08
2018-01-28T13:31:03.573Z,101892.52
2018-01-28T13:33:31.032Z,101889.68
2018-01-28T13:35:58.493Z,101888.09
2018-01-28T13:38:25.961Z,101889.66
2018-01-28T13:40:54.414Z,101886.52
2018-01-28T13:43:21.966Z,101888.75
2018-01-28T13:45:49.392Z,101880.99
2018-01-28T13:48:16.825Z,101881.41
2018-01-28T13:50:44.315Z,101886.42
2018-01-28T13:53:11.730Z,101878.89
2018-01-28T13:55:39.388Z,101869.63
2018-01-28T13:58:06.850Z,101877.03
2018-01-28T14:00:34.268Z,101868.33
2018-01-28T14:03:01.730Z,101863.56
2018-01-28T14:05:29.160Z,101860.01
2018-01-28T14:07:56.590Z,101855.94
2018-01-28T14:10:24.001Z,101859.84
2018-01-28T14:12:51.430Z,101852.84
2018-01-28T14:15:25.884Z,101854.03
2018-01-28T14:17:53.313Z,101860.88
2018-01-28T14:20:20.739Z,101851.54
2018-01-28T14:22:48.185Z,101857.30
2018-01-28T14:25:15.637Z,101850.03
2018-01-28T14:27:43.327Z,101851.88
2018-01-28T14:30:10.741Z,101852.03
2018-01-28T14:32:38.183Z,101857.22
2018-01-28T14:35:05.675Z,101858.39
2018-01-28T14:37:33.824Z,101849.89
2018-01-28T14:40:01.261Z,101857.73
2018-01-28T14:42:28.681Z,101860.06
2018-01-28T14:44:56.126Z,101866.48
2018-01-28T14:47:23.528Z,101851.81
2018-01-28T14:49:50.953Z,101854.72
2018-01-28T14:52:18.449Z,101856.81
2018-01-28T14:54:45.876Z,101859.80
2018-01-28T14:57:13.320Z,101863.28
2018-01-28T14:59:40.773Z,101862.06
2018-01-28T15:02:08.186Z,101860.78
2018-01-28T15:04:35.710Z,101854.46
2018-01-28T15:07:03.958Z,101858.28
2018-01-28T15:09:31.385Z,101857.02
2018-01-28T15:11:58.821Z,101858.59
2018-01-28T15:14:29.167Z,101854.42
2018-01-28T15:16:57.208Z,101858.70
2018-01-28T15:19:24.629Z,101850.44
2018-01-28T15:21:52.057Z,101861.88
2018-01-28T15:24:20.385Z,101850.30
2018-01-28T15:26:47.805Z,101856.60
2018-01-28T15:29:15.264Z,101858.08
2018-01-28T15:31:42.675Z,101868.58
2018-01-28T15:34:10.183Z,101867.52
2018-01-28T15:36:37.644Z,101857.16
2018-01-28T15:39:05.910Z,101862.36
2018-01-28T15:41:33.321Z,101860.34
2018-01-28T15:44:00.785Z,101864.17
2018-01-28T15:46:28.221Z,101871.34
2018-01-28T15:48:55.655Z,101867.06
2018-01-28T15:51:23.089Z,101872.84
2018-01-28T15:53:50.553Z,101874.42
2018-01-28T15:56:18.007Z,101867.87
2018-01-28T15:58:45.446Z,101869.30
2018-01-28T16:01:12.852Z,101871.88
2018-01-28T16:03:40.274Z,101877.28
2018-01-28T16:06:07.729Z,101866.70
2018-01-28T16:08:35.169Z,101869.95
2018-01-28T16:11:02.596Z,101864.43
2018-01-28T16:13:30.045Z,101864.69
2018-01-28T16:15:57.500Z,101857.77
2018-01-28T16:18:25.799Z,101848.20
2018-01-28T16:20:53.230Z,101851.83
2018-01-28T16:23:20.659Z,101854.08
2018-01-28T16:25:48.111Z,101856.98
2018-01-28T16:28:15.568Z,101862.41
2018-01-28T16:30:42.992Z,101856.54
2018-01-28T16:33:10.418Z,101866.66
2018-01-28T16:35:37.832Z,101859.41
2018-01-28T16:38:05.271Z,101859.91
2018-01-28T16:40:32.717Z,101863.74
2018-01-28T16:43:00.157Z,101865.25
2018-01-28T16:45:27.572Z,101863.81
2018-01-28T16:47:55.006Z,101858.48
2018-01-28T16:50:22.429Z,101864.45
2018-01-28T16:52:49.843Z,101864.56
2018-01-28T16:55:17.260Z,101872.14
2018-01-28T16:57:44.926Z,101872.48
2018-01-28T17:00:12.341Z,101873.39
2018-01-28T17:02:39.760Z,101881.64
2018-01-28T17:05:07.202Z,101885.40
2018-01-28T17:07:34.630Z,101871.55
2018-01-28T17:10:02.034Z,101870.83
2018-01-28T17:12:29.486Z,101874.89
2018-01-28T17:14:56.901Z,101872.22
2018-01-28T17:17:24.310Z,101867.52
2018-01-28T17:19:51.749Z,101880.22
2018-01-28T17:22:19.189Z,101884.39
2018-01-28T17:24:46.611Z,101879.55
2018-01-28T17:27:14.057Z,101885.47
2018-01-28T17:29:41.493Z,101888.30
2018-01-28T17:32:08.918Z,101890.45
2018-01-28T17:34:36.373Z,101883.37
2018-01-28T17:37:03.788Z,101884.06
2018-01-28T17:39:31.200Z,101884.65
2018-01-28T17:41:58.665Z,101880.25
2018-01-28T17:44:26.106Z,101888.94
2018-01-28T17:46:55.446Z,101877.45
2018-01-28T17:49:24.411Z,101876.74
2018-01-28T17:51:51.813Z,101877.56
2018-01-28T17:54:19.239Z,101875.41
2018-01-28T17:56:46.673Z,101866.77
2018-01-28T17:59:14.097Z,101870.17
2018-01-28T18:01:41.522Z,101877.12
2018-01-28T18:04:08.965Z,101871.43
2018-01-28T18:06:36.397Z,101872.78
2018-01-28T18:09:03.825Z,101864.78
2018-01-28T18:11:31.541Z,101869.37
2018-01-28T18:13:58.949Z,101864.13
2018-01-28T18:16:27.341Z,101864.01
2018-01-28T18:18:54.809Z,101867.57
2018-01-28T18:21:22.232Z,101870.47
2018-01-28T18:23:49.669Z,101865.91
2018-01-28T18:26:18.221Z,101867.99
2018-01-28T18:28:45.632Z,101860.71
2018-01-28T18:31:13.066Z,101867.66
2018-01-28T18:33:40.507Z,101867.57
2018-01-28T18:36:07.920Z,101870.91
2018-01-28T18:38:35.359Z,101869.11
2018-01-28T18:41:02.793Z,101874.61
2018-01-28T18:43:31.133Z,101875.50
2018-01-28T18:45:58.812Z,101881.33
2018-01-28T18:48:26.255Z,101875.11
2018-01-28T18:50:53.732Z,101876.44
2018-01-28T18:53:21.155Z,101885.00
2018-01-28T18:55:48.953Z,101869.25
2018-01-28T18:58:16.373Z,101868.92
2018-01-28T19:00:43.845Z,101881.68
2018-01-28T19:03:11.257Z,101881.47
2018-01-28T19:05:39.209Z,101882.28
2018-01-28T19:08:10.431Z,101892.69
2018-01-28T19:10:37.863Z,101888.61
2018-01-28T19:13:05.317Z,101880.20
2018-01-28T19:15:32.741Z,101893.69
2018-01-28T19:18:00.165Z,101895.12
2018-01-28T19:20:28.010Z,101891.26
2018-01-28T19:22:55.425Z,101887.77
2018-01-28T19:25:23.244Z,101894.41
2018-01-28T19:27:50.891Z,101892.00
2018-01-28T19:30:18.313Z,101886.59
2018-01-28T19:32:45.736Z,101893.41
2018-01-28T19:35:13.169Z,101877.73
2018-01-28T19:37:40.731Z,101888.66
2018-01-28T19:40:08.149Z,101882.80
2018-01-28T19:42:35.609Z,101890.13
2018-01-28T19:45:03.431Z,101890.42
2018-01-28T19:47:30.982Z,101888.82
2018-01-28T19:49:58.397Z,101897.41
2018-01-28T19:52:25.927Z,101887.68
2018-01-28T19:54:53.420Z,101893.58
2018-01-28T19:57:20.865Z,101886.12
2018-01-28T19:59:48.312Z,101894.81
2018-01-28T20:02:15.731Z,101887.91
2018-01-28T20:04:43.185Z,101881.56
2018-01-28T20:07:10.609Z,101883.13
2018-01-28T20:09:38.050Z,101882.90
2018-01-28T20:12:05.468Z,101882.05
2018-01-28T20:14:32.926Z,101889.71
2018-01-28T20:17:00.341Z,101889.80
2018-01-28T20:19:27.759Z,101896.50
2018-01-28T20:21:56.070Z,101888.80
2018-01-28T20:24:23.494Z,101883.83
2018-01-28T20:26:50.896Z,101879.13
2018-01-28T20:29:18.416Z,101884.95
2018-01-28T20:31:45.885Z,101888.48
2018-01-28T20:34:13.318Z,101875.20
2018-01-28T20:36:40.729Z,101886.12
2018-01-28T20:39:08.205Z,101879.03
2018-01-28T20:41:37.001Z,101879.39
2018-01-28T20:44:04.449Z,101878.63
2018-01-28T20:46:31.880Z,101880.64
2018-01-28T20:48:59.309Z,101876.12
2018-01-28T20:51:26.718Z,101877.09
2018-01-28T20:53:54.254Z,101875.88
2018-01-28T20:56:21.663Z,101874.55
2018-01-28T20:58:49.085Z,101876.05
2018-01-28T21:01:16.509Z,101872.36
2018-01-28T21:03:43.929Z,101866.94
2018-01-28T21:06:11.357Z,101863.09
2018-01-28T21:08:39.234Z,101863.27
2018-01-28T21:11:06.654Z,101859.12
2018-01-28T21:13:34.079Z,101868.34
2018-01-28T21:16:01.496Z,101861.83
2018-01-28T21:18:28.927Z,101864.20
2018-01-28T21:20:56.693Z,101865.60
2018-01-28T21:23:24.113Z,101866.35
2018-01-28T21:25:51.525Z,101858.08
2018-01-28T21:28:18.957Z,101880.42
2018-01-28T21:30:46.381Z,101879.38
2018-01-28T21:33:13.813Z,101877.03
2018-01-28T21:35:41.224Z,101882.31
2018-01-28T21:38:08.638Z,101877.59
2018-01-28T21:40:36.101Z,101871.93
2018-01-28T21:43:03.509Z,101874.37
2018-01-28T21:45:30.937Z,101875.61
2018-01-28T21:47:58.345Z,101882.80
2018-01-28T21:50:25.758Z,101881.44
2018-01-28T21:52:53.185Z,101876.12
2018-01-28T21:55:20.621Z,101873.33
2018-01-28T21:57:48.044Z,101881.56
2018-01-28T22:00:15.465Z,101882.73
2018-01-28T22:02:42.884Z,101880.03
2018-01-28T22:05:10.302Z,101880.92
2018-01-28T22:07:37.716Z,101876.06
2018-01-28T22:10:05.183Z,101879.45
2018-01-28T22:12:32.602Z,101876.35
2018-01-28T22:15:01.064Z,101877.78
2018-01-28T22:17:28.472Z,101881.97
2018-01-28T22:19:55.884Z,101887.02
2018-01-28T22:22:23.315Z,101886.80
2018-01-28T22:24:50.732Z,101877.03
2018-01-28T22:27:18.159Z,101878.05
2018-01-28T22:29:45.573Z,101875.72
2018-01-28T22:32:14.768Z,101874.03
2018-01-28T22:34:42.225Z,101878.97
2018-01-28T22:37:09.621Z,101874.56
2018-01-28T22:39:37.077Z,101878.55
2018-01-28T22:42:04.521Z,101881.48
2018-01-28T22:44:31.928Z,101875.52
2018-01-28T22:46:59.348Z,101875.20
2018-01-28T22:49:26.788Z,101873.28
2018-01-28T22:51:54.205Z,101870.54
2018-01-28T22:54:21.621Z,101867.41
2018-01-28T22:56:49.050Z,101868.72
2018-01-28T22:59:16.472Z,101875.71
2018-01-28T23:01:43.893Z,101875.53
2018-01-28T23:04:11.312Z,101873.33
2018-01-28T23:06:38.720Z,101868.13
2018-01-28T23:09:06.136Z,101873.06
2018-01-28T23:11:33.561Z,101865.41
2018-01-28T23:14:00.977Z,101860.64
2018-01-28T23:16:28.390Z,101863.64
2018-01-28T23:18:55.809Z,101861.20
2018-01-28T23:21:23.237Z,101862.09
2018-01-28T23:23:50.644Z,101851.77
2018-01-28T23:26:18.112Z,101852.05
2018-01-28T23:28:45.532Z,101855.47
2018-01-28T23:31:12.949Z,101854.99
2018-01-28T23:33:40.379Z,101853.00
2018-01-28T23:36:07.788Z,101851.02
2018-01-28T23:38:35.209Z,101849.35
2018-01-28T23:41:02.652Z,101858.53
2018-01-28T23:43:30.065Z,101853.63
2018-01-28T23:45:57.485Z,101857.88
2018-01-28T23:48:24.927Z,101864.03
2018-01-28T23:50:52.369Z,101848.05
2018-01-28T23:53:19.793Z,101854.00
2018-01-28T23:55:47.238Z,101854.16
2018-01-28T23:58:14.653Z,101852.59
